West Branch, New York
Current Conditions -  °F | °C
As of 11:53 AM on Saturday 20 Dec 2014 (Local Time) from KRME Reporting Station
Overcast Overcast  
Wind Chill: -6°   Ceiling: 1900
Heat Index: -3°   Visibility: 10mi
Dew Point: -7°   Wind: 5mph
Humidity: 75%   Direction: 100°E
Pressure: 30.3"   Gusts: NA
Location:  43.3661°N, 75.4626°W
Report Text: KRME 201653Z 10004KT 10SM OVC019 M03/M07 A3030 RMK AO2 SLP268 T10331072
Loading
Personal Weather Stations






























Interactive Weather Map New forecast layout! Learn more

10-Day Weather Forecast

Advertisements
Track Severe Weather on mobile